createdAt,value
2023-04-15T00:03:55.999Z,2.25
2023-04-15T00:09:21.674Z,2.63
2023-04-15T00:14:47.682Z,2.10
2023-04-15T00:20:13.614Z,2.03
2023-04-15T00:25:39.344Z,2.10
2023-04-15T00:31:02.914Z,2.42
2023-04-15T00:36:27.785Z,2.70
2023-04-15T00:41:54.194Z,1.70
2023-04-15T00:47:20.308Z,1.70
2023-04-15T00:52:43.329Z,2.38
2023-04-15T00:58:08.042Z,1.85
2023-04-15T01:03:32.901Z,2.08
2023-04-15T01:08:59.349Z,1.58
2023-04-15T01:14:25.060Z,1.85
2023-04-15T01:19:49.105Z,1.83
2023-04-15T01:25:13.823Z,1.70
2023-04-15T01:30:40.999Z,1.70
2023-04-15T01:36:06.205Z,1.90
2023-04-15T01:41:30.951Z,1.90
2023-04-15T01:46:55.659Z,2.80
2023-04-15T01:52:18.548Z,2.38
2023-04-15T01:57:42.586Z,2.17
2023-04-15T02:03:08.313Z,2.30
2023-04-15T02:08:32.757Z,2.28
2023-04-15T02:13:57.338Z,2.70
2023-04-15T02:19:26.307Z,2.75
2023-04-15T02:24:52.121Z,3.10
2023-04-15T02:30:16.132Z,3.03
2023-04-15T02:35:44.244Z,2.80
2023-04-15T02:41:08.668Z,2.92
2023-04-15T02:46:32.729Z,3.08
2023-04-15T02:52:00.125Z,2.67
2023-04-15T02:57:24.292Z,3.17
2023-04-15T03:02:52.504Z,3.40
2023-04-15T03:08:20.817Z,3.20
2023-04-15T03:13:44.790Z,3.10
2023-04-15T03:19:21.460Z,3.63
2023-04-15T03:24:46.752Z,2.85
2023-04-15T03:30:12.441Z,3.45
2023-04-15T03:35:38.814Z,3.03
2023-04-15T03:41:04.205Z,3.33
2023-04-15T03:46:28.789Z,2.70
2023-04-15T03:51:53.076Z,3.80
2023-04-15T03:57:18.389Z,3.20
2023-04-15T04:02:43.885Z,3.83
2023-04-15T04:08:10.005Z,3.00
2023-04-15T04:13:35.696Z,4.65
2023-04-15T04:19:01.809Z,3.85
2023-04-15T04:24:26.550Z,3.80
2023-04-15T04:29:52.308Z,4.47
2023-04-15T04:35:16.701Z,5.20
2023-04-15T04:40:42.500Z,5.32
2023-04-15T04:46:07.723Z,5.35
2023-04-15T04:51:32.373Z,4.85
2023-04-15T04:56:59.535Z,5.00
2023-04-15T05:02:27.609Z,4.82
2023-04-15T05:07:51.922Z,5.13
2023-04-15T05:13:16.139Z,4.75
2023-04-15T05:18:44.411Z,4.38
2023-04-15T05:24:09.176Z,5.47
2023-04-15T05:29:33.792Z,4.43
2023-04-15T05:34:59.673Z,3.90
2023-04-15T05:40:24.438Z,4.85
2023-04-15T05:45:48.520Z,5.18
2023-04-15T05:51:14.263Z,5.13
2023-04-15T05:56:38.546Z,4.45
2023-04-15T06:02:02.876Z,4.63
2023-04-15T06:07:30.034Z,3.35
2023-04-15T06:12:55.796Z,3.22
2023-04-15T06:18:21.489Z,3.40
2023-04-15T06:23:50.426Z,3.58
2023-04-15T06:29:14.673Z,3.22
2023-04-15T06:34:38.687Z,3.35
2023-04-15T06:40:05.179Z,2.72
2023-04-15T06:45:32.561Z,3.20
2023-04-15T06:50:56.653Z,3.00
2023-04-15T06:56:22.292Z,2.45
2023-04-15T07:01:48.499Z,2.10
2023-04-15T07:07:13.431Z,2.70
2023-04-15T07:12:38.915Z,2.72
2023-04-15T07:18:03.274Z,2.20
2023-04-15T07:23:28.345Z,2.38
2023-04-15T07:28:55.168Z,2.78
2023-04-15T07:34:20.799Z,3.50
2023-04-15T07:39:45.676Z,2.45
2023-04-15T07:45:11.941Z,2.95
2023-04-15T07:50:34.976Z,2.45
2023-04-15T07:55:59.022Z,3.28
2023-04-15T08:01:25.052Z,2.28
2023-04-15T08:06:50.414Z,2.90
2023-04-15T08:12:13.874Z,2.83
2023-04-15T08:17:40.526Z,2.58
2023-04-15T08:23:05.820Z,3.40
2023-04-15T08:28:30.728Z,2.53
2023-04-15T08:33:56.956Z,2.60
2023-04-15T08:39:20.549Z,2.70
2023-04-15T08:44:44.638Z,3.00
2023-04-15T08:50:15.975Z,2.93
2023-04-15T08:55:43.438Z,3.33
2023-04-15T09:01:07.299Z,2.80
2023-04-15T09:06:32.770Z,3.67
2023-04-15T09:11:56.852Z,3.10
2023-04-15T09:17:20.707Z,3.20
2023-04-15T09:22:46.595Z,2.88
2023-04-15T09:28:10.902Z,4.05
2023-04-15T09:33:35.129Z,3.22
2023-04-15T09:39:01.984Z,2.60
2023-04-15T09:44:27.957Z,2.75
2023-04-15T09:49:56.610Z,2.63
2023-04-15T09:55:22.595Z,2.88
2023-04-15T10:00:48.712Z,2.67
2023-04-15T10:06:13.287Z,3.08
2023-04-15T10:11:38.715Z,3.38
2023-04-15T10:17:03.793Z,3.38
2023-04-15T10:22:28.244Z,2.83
2023-04-15T10:27:54.112Z,2.88
2023-04-15T10:33:20.573Z,3.17
2023-04-15T10:38:45.439Z,3.22
2023-04-15T10:44:11.223Z,2.78
2023-04-15T10:49:35.850Z,3.28
2023-04-15T10:55:05.445Z,3.60
2023-04-15T11:00:31.743Z,4.07
2023-04-15T11:05:57.017Z,3.55
2023-04-15T11:11:22.017Z,3.60
2023-04-15T11:16:48.157Z,4.00
2023-04-15T11:22:12.765Z,3.65
2023-04-15T11:27:37.879Z,3.88
2023-04-15T11:33:04.248Z,3.95
2023-04-15T11:38:28.866Z,4.25
2023-04-15T11:43:53.242Z,4.43
2023-04-15T11:49:28.882Z,4.78
2023-04-15T11:55:03.191Z,5.50
2023-04-15T12:00:27.685Z,5.03
2023-04-15T12:06:19.551Z,4.40
2023-04-15T12:11:48.421Z,4.35
2023-04-15T12:17:15.421Z,4.57
2023-04-15T12:22:39.560Z,4.57
2023-04-15T12:28:13.059Z,4.30
2023-04-15T12:33:39.178Z,3.45
2023-04-15T12:39:05.286Z,4.45
2023-04-15T12:44:30.834Z,4.35
2023-04-15T12:49:55.537Z,4.22
2023-04-15T12:55:21.324Z,4.22
2023-04-15T13:00:48.692Z,3.70
2023-04-15T13:06:13.508Z,3.72
2023-04-15T13:11:39.692Z,4.28
2023-04-15T13:17:10.122Z,4.80
2023-04-15T13:22:34.092Z,5.63
2023-04-15T13:27:58.714Z,5.97
2023-04-15T13:33:24.376Z,7.95
2023-04-15T13:38:51.599Z,9.57
2023-04-15T13:44:15.813Z,8.35
2023-04-15T13:49:44.726Z,8.68
2023-04-15T13:55:20.490Z,7.47
2023-04-15T14:00:46.281Z,7.28
2023-04-15T14:06:12.504Z,6.97
2023-04-15T14:11:39.002Z,7.85
2023-04-15T14:17:03.856Z,7.97
2023-04-15T14:22:30.065Z,6.80
2023-04-15T14:27:53.825Z,8.77
2023-04-15T14:33:17.619Z,8.93
2023-04-15T14:38:44.431Z,8.32
2023-04-15T14:44:11.559Z,9.20
2023-04-15T14:49:35.490Z,9.32
2023-04-15T14:55:00.797Z,9.23
2023-04-15T15:00:25.089Z,10.70
2023-04-15T15:05:50.622Z,9.30
2023-04-15T15:11:17.039Z,9.90
2023-04-15T15:16:41.595Z,9.48
2023-04-15T15:22:07.620Z,9.73
2023-04-15T15:27:34.519Z,7.72
2023-04-15T15:33:00.175Z,7.55
2023-04-15T15:38:24.654Z,7.55
2023-04-15T15:43:50.401Z,7.88
2023-04-15T15:49:14.495Z,9.00
2023-04-15T15:54:38.760Z,8.05
2023-04-15T16:00:11.963Z,8.73
2023-04-15T16:05:38.913Z,7.93
2023-04-15T16:11:03.662Z,8.35
2023-04-15T16:16:30.046Z,8.48
2023-04-15T16:21:55.529Z,8.32
2023-04-15T16:27:21.513Z,8.95
2023-04-15T16:32:47.152Z,7.13
2023-04-15T16:38:11.325Z,8.35
2023-04-15T16:43:35.904Z,8.70
2023-04-15T16:49:01.639Z,8.63
2023-04-15T16:54:26.078Z,8.73
2023-04-15T16:59:51.427Z,9.40
2023-04-15T17:05:16.814Z,7.78
2023-04-15T17:10:40.910Z,7.43
2023-04-15T17:16:05.040Z,8.15
2023-04-15T17:21:32.731Z,7.78
2023-04-15T17:26:57.505Z,8.90
2023-04-15T17:32:22.729Z,8.40
2023-04-15T17:37:49.055Z,9.45
2023-04-15T17:43:12.920Z,8.02
2023-04-15T17:48:36.807Z,8.65
2023-04-15T17:54:02.538Z,8.30
2023-04-15T17:59:27.117Z,9.23
2023-04-15T18:04:50.996Z,8.60
2023-04-15T18:10:16.666Z,7.28
2023-04-15T18:15:41.275Z,6.63
2023-04-15T18:21:06.141Z,7.43
2023-04-15T18:26:32.841Z,7.22
2023-04-15T18:32:03.096Z,7.70
2023-04-15T18:37:29.360Z,7.65
2023-04-15T18:42:56.245Z,7.93
2023-04-15T18:48:20.910Z,6.97
2023-04-15T18:53:46.950Z,7.80
2023-04-15T18:59:29.624Z,9.35
2023-04-15T19:04:54.706Z,6.68
2023-04-15T19:10:20.826Z,6.45
2023-04-15T19:15:47.041Z,5.85
2023-04-15T19:21:12.548Z,5.53
2023-04-15T19:26:37.767Z,4.10
2023-04-15T19:32:04.734Z,4.18
2023-04-15T19:37:30.153Z,3.90
2023-04-15T19:42:55.726Z,3.60
2023-04-15T19:48:20.605Z,3.92
2023-04-15T19:53:44.804Z,3.97
2023-04-15T19:59:08.802Z,3.90
2023-04-15T20:04:34.589Z,3.95
2023-04-15T20:09:59.348Z,3.90
2023-04-15T20:15:26.103Z,4.30
2023-04-15T20:20:51.285Z,4.47
2023-04-15T20:26:15.868Z,4.90
2023-04-15T20:31:39.792Z,4.07
2023-04-15T20:37:05.707Z,4.05
2023-04-15T20:42:32.981Z,4.20
2023-04-15T20:47:56.999Z,5.20
2023-04-15T20:53:22.028Z,3.95
2023-04-15T20:58:47.786Z,4.00
2023-04-15T21:04:13.668Z,4.70
2023-04-15T21:09:41.423Z,3.60
2023-04-15T21:15:06.462Z,4.10
2023-04-15T21:20:30.949Z,4.43
2023-04-15T21:25:58.621Z,4.07
2023-04-15T21:31:22.800Z,4.38
2023-04-15T21:36:49.722Z,3.85
2023-04-15T21:42:15.124Z,4.25
2023-04-15T21:48:01.388Z,4.15
2023-04-15T21:53:24.137Z,4.28
2023-04-15T21:58:50.501Z,4.18
2023-04-15T22:04:14.554Z,3.67
2023-04-15T22:09:40.473Z,4.20
2023-04-15T22:15:08.166Z,4.43
2023-04-15T22:20:32.813Z,4.57
2023-04-15T22:25:56.480Z,4.10
2023-04-15T22:31:21.638Z,4.00
2023-04-15T22:36:45.713Z,4.38
2023-04-15T22:42:09.137Z,4.90
2023-04-15T22:47:34.134Z,4.47
2023-04-15T22:52:57.704Z,4.25
2023-04-15T22:58:21.683Z,4.25
2023-04-15T23:03:56.436Z,4.65
2023-04-15T23:09:28.497Z,4.55
2023-04-15T23:14:52.023Z,4.72
2023-04-15T23:20:18.100Z,4.80
2023-04-15T23:25:42.147Z,4.90
2023-04-15T23:31:06.886Z,4.70
2023-04-15T23:36:32.879Z,5.75
2023-04-15T23:41:57.461Z,5.97
2023-04-15T23:47:21.273Z,5.88
2023-04-15T23:52:46.208Z,7.18
2023-04-15T23:58:10.011Z,7.13
